Jack Guidry — WDF2422 — position and weather

sailwx.info

Track history (hours):
 
Tides and Currents Weather Stations Pressure Air Temp Water Temp Dewpoint Dewpoint Depression Visibility Wind Speed Wind Dir Waves Ship Positions

Jack Guidry

Owner: Enterprise Marine Services, LLC, San Antonio, TX. More information available from US FCC via Universal Licensing System and Coast Guard Vessel Documentation Center.

Last reported at 2016-May-02 20:12 UTC. Time now 2016-May-03 10:40 UTC.
Position N 29°44' W 095°04'.

Length 22 m; draft 3 m.

Type: Other ship. MMSI: 367003430.

Date/timePositionNaut miles runAvg speedWind from/ knotsBaromVisibWave heightAir tempDewpointWater temp
2016-May-02 20:12N 29°44' W 095°04'0 0.1
2016-May-02 19:29N 29°44' W 095°03'3 3.3
2016-May-02 18:30N 29°42' W 095°01'4 4.7
2016-May-02 17:32N 29°38' W 094°58'5 5.5
2016-May-02 16:33N 29°34' W 094°55'  
2016-Apr-29 10:32N 30°04' W 093°38'8 3.9
2016-Apr-29 08:32N 30°04' W 093°29'4 3.9
2016-Apr-29 07:33N 30°04' W 093°25'4 3.5
2016-Apr-29 06:33N 30°04' W 093°21'4 1.4
2016-Apr-29 03:33N 30°08' W 093°20'0 0.3
2016-Apr-29 02:33N 30°08' W 093°19'0 0.0
2016-Apr-29 01:33N 30°08' W 093°19'0 0.0
2016-Apr-29 00:33N 30°08' W 093°19'0 0.0
2016-Apr-28 23:33N 30°08' W 093°19'0 0.0
2016-Apr-28 22:33N 30°08' W 093°19'0 0.0
2016-Apr-28 21:33N 30°08' W 093°19'0 0.0
2016-Apr-28 20:33N 30°08' W 093°19'0 0.0
2016-Apr-28 19:33N 30°08' W 093°19'0 0.0
2016-Apr-28 18:33N 30°08' W 093°19'0 0.0
2016-Apr-28 17:33N 30°08' W 093°19'0 0.0
2016-Apr-28 16:33N 30°08' W 093°19'0 0.0
2016-Apr-28 15:33N 30°08' W 093°19'0 0.0
2016-Apr-28 14:33N 30°08' W 093°19'0 0.0
2016-Apr-28 13:33N 30°08' W 093°19'0 0.0
2016-Apr-28 12:33N 30°08' W 093°19'0 0.0
2016-Apr-28 11:33N 30°08' W 093°19'0 0.0
2016-Apr-28 10:33N 30°08' W 093°19'0 0.1
2016-Apr-28 09:33N 30°08' W 093°19'0 0.3
2016-Apr-28 08:33N 30°08' W 093°20'4 4.4
2016-Apr-28 07:33N 30°04' W 093°21'5 5.0
2016-Apr-28 06:33N 30°04' W 093°27'4 4.5
2016-Apr-28 05:33N 30°04' W 093°32'5 4.9
2016-Apr-28 04:32N 30°04' W 093°38'48 4.4
2016-Apr-27 17:32N 29°36' W 094°23'29 1.0
2016-Apr-26 12:33N 29°36' W 094°57'7 7.0
2016-Apr-26 11:33N 29°42' W 095°00'7 0.4
2016-Apr-25 18:31N 29°44' W 095°08'4 0.2
2016-Apr-24 23:11N 29°47' W 095°05'0 0.2
2016-Apr-24 22:10N 29°47' W 095°05'0 0.0
2016-Apr-24 21:34N 29°47' W 095°05'0 0.0
2016-Apr-24 20:33N 29°47' W 095°05'0 0.0
2016-Apr-24 19:33N 29°47' W 095°05'0 0.0
2016-Apr-24 18:33N 29°47' W 095°05'5 0.3
2016-Apr-23 23:23N 29°45' W 095°10'4 4.6
2016-Apr-23 22:29N 29°46' W 095°05'1 0.2
2016-Apr-23 14:13N 29°47' W 095°05'0 0.0
2016-Apr-23 13:34N 29°47' W 095°05'0 0.0
2016-Apr-23 12:34N 29°47' W 095°05'0 0.0
2016-Apr-23 11:34N 29°47' W 095°05'0 0.0
2016-Apr-23 10:33N 29°47' W 095°05'0 0.0
2016-Apr-23 09:34N 29°47' W 095°05'0 0.0
2016-Apr-23 08:34N 29°47' W 095°05'0 0.0
2016-Apr-23 07:33N 29°47' W 095°05'0 0.0
2016-Apr-23 06:32N 29°47' W 095°05'0 0.0
2016-Apr-23 04:33N 29°47' W 095°05'0 0.0
2016-Apr-22 20:31N 29°47' W 095°05'  
Track history (hours):
 
Tides and Currents Weather Stations Pressure Air Temp Water Temp Dewpoint Dewpoint Depression Visibility Wind Speed Wind Dir Waves Ship Positions

Jack Guidry

Owner: Enterprise Marine Services, LLC, San Antonio, TX. More information available from US FCC via Universal Licensing System and Coast Guard Vessel Documentation Center.

Last reported at 2016-May-02 20:12 UTC. Time now 2016-May-03 10:40 UTC.
Position N 29°44' W 095°04'.

Length 22 m; draft 3 m.

Type: Other ship. MMSI: 367003430.

Date/timePositionNaut miles runAvg speedWind from/ knotsBaromVisibWave heightAir tempDewpointWater temp
2016-May-02 20:12N 29°44' W 095°04'0 0.1
2016-May-02 19:29N 29°44' W 095°03'3 3.3
2016-May-02 18:30N 29°42' W 095°01'4 4.7
2016-May-02 17:32N 29°38' W 094°58'5 5.5
2016-May-02 16:33N 29°34' W 094°55'  
2016-Apr-29 10:32N 30°04' W 093°38'8 3.9
2016-Apr-29 08:32N 30°04' W 093°29'4 3.9
2016-Apr-29 07:33N 30°04' W 093°25'4 3.5
2016-Apr-29 06:33N 30°04' W 093°21'4 1.4
2016-Apr-29 03:33N 30°08' W 093°20'0 0.3
2016-Apr-29 02:33N 30°08' W 093°19'0 0.0
2016-Apr-29 01:33N 30°08' W 093°19'0 0.0
2016-Apr-29 00:33N 30°08' W 093°19'0 0.0
2016-Apr-28 23:33N 30°08' W 093°19'0 0.0
2016-Apr-28 22:33N 30°08' W 093°19'0 0.0
2016-Apr-28 21:33N 30°08' W 093°19'0 0.0
2016-Apr-28 20:33N 30°08' W 093°19'0 0.0
2016-Apr-28 19:33N 30°08' W 093°19'0 0.0
2016-Apr-28 18:33N 30°08' W 093°19'0 0.0
2016-Apr-28 17:33N 30°08' W 093°19'0 0.0
2016-Apr-28 16:33N 30°08' W 093°19'0 0.0
2016-Apr-28 15:33N 30°08' W 093°19'0 0.0
2016-Apr-28 14:33N 30°08' W 093°19'0 0.0
2016-Apr-28 13:33N 30°08' W 093°19'0 0.0
2016-Apr-28 12:33N 30°08' W 093°19'0 0.0
2016-Apr-28 11:33N 30°08' W 093°19'0 0.0
2016-Apr-28 10:33N 30°08' W 093°19'0 0.1
2016-Apr-28 09:33N 30°08' W 093°19'0 0.3
2016-Apr-28 08:33N 30°08' W 093°20'4 4.4
2016-Apr-28 07:33N 30°04' W 093°21'5 5.0
2016-Apr-28 06:33N 30°04' W 093°27'4 4.5
2016-Apr-28 05:33N 30°04' W 093°32'5 4.9
2016-Apr-28 04:32N 30°04' W 093°38'48 4.4
2016-Apr-27 17:32N 29°36' W 094°23'29 1.0
2016-Apr-26 12:33N 29°36' W 094°57'7 7.0
2016-Apr-26 11:33N 29°42' W 095°00'7 0.4
2016-Apr-25 18:31N 29°44' W 095°08'4 0.2
2016-Apr-24 23:11N 29°47' W 095°05'0 0.2
2016-Apr-24 22:10N 29°47' W 095°05'0 0.0
2016-Apr-24 21:34N 29°47' W 095°05'0 0.0
2016-Apr-24 20:33N 29°47' W 095°05'0 0.0
2016-Apr-24 19:33N 29°47' W 095°05'0 0.0
2016-Apr-24 18:33N 29°47' W 095°05'5 0.3
2016-Apr-23 23:23N 29°45' W 095°10'4 4.6
2016-Apr-23 22:29N 29°46' W 095°05'1 0.2
2016-Apr-23 14:13N 29°47' W 095°05'0 0.0
2016-Apr-23 13:34N 29°47' W 095°05'0 0.0
2016-Apr-23 12:34N 29°47' W 095°05'0 0.0
2016-Apr-23 11:34N 29°47' W 095°05'0 0.0
2016-Apr-23 10:33N 29°47' W 095°05'0 0.0
2016-Apr-23 09:34N 29°47' W 095°05'0 0.0
2016-Apr-23 08:34N 29°47' W 095°05'0 0.0
2016-Apr-23 07:33N 29°47' W 095°05'0 0.0
2016-Apr-23 06:32N 29°47' W 095°05'0 0.0
2016-Apr-23 04:33N 29°47' W 095°05'0 0.0
2016-Apr-22 20:31N 29°47' W 095°05'  

Dump ship's entire track history